Terminal Aerodrome Forecast
Issued by NWS Twin Cities, MN

Home | Current Version | Previous Version | Text Only | Print | Product List | Glossary Off
Versions: 1 2 3 4 5 6 7 8 9 10 11 12 13 14 15 16 17 18

829
FTUS43 KMPX 212320
TAFEAU
TAF
KEAU 212320Z 2200/2224 19006KT P6SM SCT120 BKN200
     FM221000 19003KT 3SM BR BKN100
     FM221500 20005KT P6SM BKN100=

USA.gov is the U.S. government's official web portal to all federal, state and local government web resources and services.